sensor_id;sensor_type;location;lat;lon;timestamp;pressure;altitude;pressure_sealevel;temperature;humidity
61357;BME280;47227;46.752;23.576;2023-01-25T01:18:56;97680.73;;;-2.95;80.52
61357;BME280;47227;46.752;23.576;2023-01-25T04:19:39;97628.20;;;-4.65;81.84
61357;BME280;47227;46.752;23.576;2023-01-25T04:22:10;97628.79;;;-4.66;81.70
61357;BME280;47227;46.752;23.576;2023-01-25T04:25:08;97629.66;;;-4.66;81.60
61357;BME280;47227;46.752;23.576;2023-01-25T04:27:50;97637.61;;;-4.67;81.76
61357;BME280;47227;46.752;23.576;2023-01-25T04:30:20;97638.35;;;-4.68;81.56
61357;BME280;47227;46.752;23.576;2023-01-25T04:32:49;97636.44;;;-4.67;81.57
61357;BME280;47227;46.752;23.576;2023-01-25T04:35:21;97637.05;;;-4.65;82.49
61357;BME280;47227;46.752;23.576;2023-01-25T04:37:58;97635.86;;;-4.60;81.81
61357;BME280;47227;46.752;23.576;2023-01-25T04:40:32;97641.86;;;-4.54;81.78
61357;BME280;47227;46.752;23.576;2023-01-25T04:43:01;97635.73;;;-4.48;81.94
61357;BME280;47227;46.752;23.576;2023-01-25T04:45:33;97638.05;;;-4.38;81.90
61357;BME280;47227;46.752;23.576;2023-01-25T04:48:08;97632.80;;;-4.27;82.04
61357;BME280;47227;46.752;23.576;2023-01-25T04:50:39;97632.83;;;-4.17;81.68
61357;BME280;47227;46.752;23.576;2023-01-25T04:53:10;97633.45;;;-4.03;82.23
61357;BME280;47227;46.752;23.576;2023-01-25T04:56:00;97636.80;;;-3.87;82.47
61357;BME280;47227;46.752;23.576;2023-01-25T04:58:32;97639.05;;;-3.73;82.54
61357;BME280;47227;46.752;23.576;2023-01-25T05:01:01;97638.06;;;-3.58;82.65
61357;BME280;47227;46.752;23.576;2023-01-25T05:03:30;97637.48;;;-3.43;82.56
61357;BME280;47227;46.752;23.576;2023-01-25T05:05:59;97637.89;;;-3.31;82.90
61357;BME280;47227;46.752;23.576;2023-01-25T05:40:43;97648.98;;;-3.39;83.63
61357;BME280;47227;46.752;23.576;2023-01-25T05:54:32;97664.97;;;-3.44;83.66
61357;BME280;47227;46.752;23.576;2023-01-25T05:57:03;97666.40;;;-3.47;84.22
61357;BME280;47227;46.752;23.576;2023-01-25T05:59:33;97665.31;;;-3.53;84.60
61357;BME280;47227;46.752;23.576;2023-01-25T06:02:06;97665.58;;;-3.52;84.03
61357;BME280;47227;46.752;23.576;2023-01-25T06:04:37;97666.23;;;-3.54;84.31
61357;BME280;47227;46.752;23.576;2023-01-25T06:07:27;97664.27;;;-3.55;84.65
61357;BME280;47227;46.752;23.576;2023-01-25T06:10:16;97664.65;;;-3.53;84.34
61357;BME280;47227;46.752;23.576;2023-01-25T06:12:46;97665.67;;;-3.51;84.54
61357;BME280;47227;46.752;23.576;2023-01-25T06:15:16;97670.80;;;-3.49;84.48
61357;BME280;47227;46.752;23.576;2023-01-25T06:17:48;97674.77;;;-3.47;85.09
61357;BME280;47227;46.752;23.576;2023-01-25T06:23:50;97680.95;;;-3.43;85.33
61357;BME280;47227;46.752;23.576;2023-01-25T06:26:50;97682.25;;;-3.38;84.81
61357;BME280;47227;46.752;23.576;2023-01-25T06:29:34;97682.20;;;-3.31;84.78
61357;BME280;47227;46.752;23.576;2023-01-25T06:32:32;97682.54;;;-3.29;84.92
61357;BME280;47227;46.752;23.576;2023-01-25T06:35:20;97683.89;;;-3.29;85.82
61357;BME280;47227;46.752;23.576;2023-01-25T06:40:58;97689.15;;;-3.06;84.75
61357;BME280;47227;46.752;23.576;2023-01-25T06:43:29;97688.35;;;-2.95;84.23
61357;BME280;47227;46.752;23.576;2023-01-25T06:46:39;97686.06;;;-2.83;84.25
61357;BME280;47227;46.752;23.576;2023-01-25T06:49:54;97686.08;;;-2.66;83.88
61357;BME280;47227;46.752;23.576;2023-01-25T06:52:25;97688.36;;;-2.59;84.00
61357;BME280;47227;46.752;23.576;2023-01-25T06:54:55;97687.99;;;-2.46;83.58
61357;BME280;47227;46.752;23.576;2023-01-25T06:57:24;97687.84;;;-2.34;83.15
61357;BME280;47227;46.752;23.576;2023-01-25T06:59:54;97686.50;;;-2.21;83.26
61357;BME280;47227;46.752;23.576;2023-01-25T07:02:30;97688.17;;;-2.12;82.64
61357;BME280;47227;46.752;23.576;2023-01-25T07:05:01;97686.56;;;-2.06;82.13
61357;BME280;47227;46.752;23.576;2023-01-25T07:07:30;97688.46;;;-1.98;82.07
61357;BME280;47227;46.752;23.576;2023-01-25T07:10:07;97691.91;;;-1.88;82.46
61357;BME280;47227;46.752;23.576;2023-01-25T07:12:36;97694.11;;;-1.88;81.41
61357;BME280;47227;46.752;23.576;2023-01-25T07:15:10;97693.98;;;-1.88;81.14
61357;BME280;47227;46.752;23.576;2023-01-25T07:18:25;97692.59;;;-1.86;81.04
61357;BME280;47227;46.752;23.576;2023-01-25T07:21:13;97693.91;;;-1.82;81.17
61357;BME280;47227;46.752;23.576;2023-01-25T07:24:54;97692.66;;;-1.73;81.22
61357;BME280;47227;46.752;23.576;2023-01-25T07:27:26;97687.95;;;-1.70;80.90
61357;BME280;47227;46.752;23.576;2023-01-25T07:29:57;97687.90;;;-1.74;80.28
61357;BME280;47227;46.752;23.576;2023-01-25T07:32:42;97689.27;;;-1.70;80.60
61357;BME280;47227;46.752;23.576;2023-01-25T07:35:18;97684.91;;;-1.67;80.81
61357;BME280;47227;46.752;23.576;2023-01-25T07:55:06;97685.08;;;-1.61;80.54
61357;BME280;47227;46.752;23.576;2023-01-25T07:59:09;97680.83;;;-1.48;80.34
61357;BME280;47227;46.752;23.576;2023-01-25T08:02:39;97680.36;;;-1.35;80.11
61357;BME280;47227;46.752;23.576;2023-01-25T08:05:32;97677.28;;;-1.25;80.23
61357;BME280;47227;46.752;23.576;2023-01-25T08:12:27;97671.11;;;-1.16;79.32
61357;BME280;47227;46.752;23.576;2023-01-25T08:15:40;97664.70;;;-1.08;79.58
61357;BME280;47227;46.752;23.576;2023-01-25T08:18:32;97663.65;;;-0.98;79.14
61357;BME280;47227;46.752;23.576;2023-01-25T08:21:32;97659.34;;;-0.91;79.22
61357;BME280;47227;46.752;23.576;2023-01-25T08:24:11;97658.60;;;-0.80;79.00
61357;BME280;47227;46.752;23.576;2023-01-25T08:27:01;97661.91;;;-0.70;78.96
61357;BME280;47227;46.752;23.576;2023-01-25T08:29:38;97660.88;;;-0.60;79.00
61357;BME280;47227;46.752;23.576;2023-01-25T08:32:06;97658.51;;;-0.52;78.54
61357;BME280;47227;46.752;23.576;2023-01-25T08:38:07;97661.19;;;-0.29;78.01
61357;BME280;47227;46.752;23.576;2023-01-25T08:40:42;97663.27;;;-0.16;78.34
61357;BME280;47227;46.752;23.576;2023-01-25T08:43:19;97663.69;;;-0.05;78.29
61357;BME280;47227;46.752;23.576;2023-01-25T08:46:15;97665.85;;;0.00;76.93
61357;BME280;47227;46.752;23.576;2023-01-25T08:48:48;97658.77;;;0.08;77.35
61357;BME280;47227;46.752;23.576;2023-01-25T08:51:34;97656.59;;;0.18;77.44
61357;BME280;47227;46.752;23.576;2023-01-25T08:54:22;97659.48;;;0.11;75.76
61357;BME280;47227;46.752;23.576;2023-01-25T08:57:22;97659.20;;;-0.06;76.02
61357;BME280;47227;46.752;23.576;2023-01-25T09:00:13;97660.20;;;-0.15;76.43
61357;BME280;47227;46.752;23.576;2023-01-25T09:03:11;97661.42;;;-0.24;76.31
61357;BME280;47227;46.752;23.576;2023-01-25T09:05:52;97656.73;;;-0.21;76.02
61357;BME280;47227;46.752;23.576;2023-01-25T09:08:22;97651.77;;;-0.20;76.18
61357;BME280;47227;46.752;23.576;2023-01-25T09:10:54;97648.92;;;0.03;75.79
61357;BME280;47227;46.752;23.576;2023-01-25T09:13:25;97646.05;;;0.31;74.92
61357;BME280;47227;46.752;23.576;2023-01-25T09:16:24;97647.25;;;0.61;74.21
61357;BME280;47227;46.752;23.576;2023-01-25T09:19:30;97645.04;;;0.85;73.29
61357;BME280;47227;46.752;23.576;2023-01-25T09:28:36;97627.80;;;0.86;70.48
61357;BME280;47227;46.752;23.576;2023-01-25T09:31:12;97629.17;;;0.86;70.97
61357;BME280;47227;46.752;23.576;2023-01-25T09:34:20;97622.85;;;1.06;70.86
61357;BME280;47227;46.752;23.576;2023-01-25T09:37:02;97613.50;;;1.34;71.28
61357;BME280;47227;46.752;23.576;2023-01-25T09:39:35;97607.36;;;1.55;71.43
61357;BME280;47227;46.752;23.576;2023-01-25T09:42:26;97602.08;;;1.73;71.42
61357;BME280;47227;46.752;23.576;2023-01-25T09:48:37;97595.05;;;2.08;70.57
61357;BME280;47227;46.752;23.576;2023-01-25T09:55:15;97597.55;;;2.48;69.74
61357;BME280;47227;46.752;23.576;2023-01-25T09:58:16;97596.05;;;2.58;67.65
61357;BME280;47227;46.752;23.576;2023-01-25T10:07:45;97577.58;;;2.65;59.40
61357;BME280;47227;46.752;23.576;2023-01-25T10:10:41;97574.11;;;2.72;60.45
61357;BME280;47227;46.752;23.576;2023-01-25T10:16:32;97571.03;;;2.86;58.32
61357;BME280;47227;46.752;23.576;2023-01-25T10:19:37;97567.65;;;2.90;57.50
61357;BME280;47227;46.752;23.576;2023-01-25T10:22:22;97562.95;;;2.93;56.75
61357;BME280;47227;46.752;23.576;2023-01-25T10:25:20;97557.95;;;2.93;56.53
61357;BME280;47227;46.752;23.576;2023-01-25T10:28:21;97554.59;;;2.83;54.61
61357;BME280;47227;46.752;23.576;2023-01-25T10:30:59;97550.44;;;2.65;54.06
61357;BME280;47227;46.752;23.576;2023-01-25T10:33:38;97546.02;;;2.60;54.44
61357;BME280;47227;46.752;23.576;2023-01-25T10:36:15;97544.84;;;2.54;53.46
61357;BME280;47227;46.752;23.576;2023-01-25T10:38:46;97540.13;;;2.50;54.08
61357;BME280;47227;46.752;23.576;2023-01-25T10:41:24;97534.58;;;2.55;54.19
61357;BME280;47227;46.752;23.576;2023-01-25T10:43:58;97528.75;;;2.55;54.58
61357;BME280;47227;46.752;23.576;2023-01-25T10:46:54;97532.40;;;2.59;56.01
61357;BME280;47227;46.752;23.576;2023-01-25T10:49:39;97526.13;;;2.67;55.80
61357;BME280;47227;46.752;23.576;2023-01-25T10:52:19;97519.11;;;2.75;55.41
61357;BME280;47227;46.752;23.576;2023-01-25T10:57:54;97517.61;;;2.81;53.07
61357;BME280;47227;46.752;23.576;2023-01-25T11:00:35;97517.87;;;2.79;53.13
61357;BME280;47227;46.752;23.576;2023-01-25T11:03:35;97515.96;;;2.87;54.01
61357;BME280;47227;46.752;23.576;2023-01-25T11:06:08;97510.46;;;2.88;52.46
61357;BME280;47227;46.752;23.576;2023-01-25T11:08:41;97505.97;;;2.90;52.78
61357;BME280;47227;46.752;23.576;2023-01-25T11:11:34;97505.63;;;2.94;53.55
61357;BME280;47227;46.752;23.576;2023-01-25T11:14:22;97496.73;;;3.08;53.64
61357;BME280;47227;46.752;23.576;2023-01-25T11:17:02;97490.89;;;3.17;53.66
61357;BME280;47227;46.752;23.576;2023-01-25T11:19:41;97488.52;;;3.31;53.84
61357;BME280;47227;46.752;23.576;2023-01-25T11:22:29;97482.89;;;3.44;53.42
61357;BME280;47227;46.752;23.576;2023-01-25T11:25:29;97478.42;;;3.62;52.93
61357;BME280;47227;46.752;23.576;2023-01-25T11:28:15;97475.17;;;3.80;51.70
61357;BME280;47227;46.752;23.576;2023-01-25T11:30:44;97468.39;;;4.00;50.10
61357;BME280;47227;46.752;23.576;2023-01-25T11:33:50;97459.77;;;4.21;50.03
61357;BME280;47227;46.752;23.576;2023-01-25T11:45:41;97450.08;;;4.22;50.28
61357;BME280;47227;46.752;23.576;2023-01-25T11:48:53;97447.05;;;4.19;48.75
61357;BME280;47227;46.752;23.576;2023-01-25T11:54:35;97445.91;;;4.04;48.17
61357;BME280;47227;46.752;23.576;2023-01-25T12:00:25;97438.44;;;3.94;50.13
61357;BME280;47227;46.752;23.576;2023-01-25T12:03:18;97435.34;;;3.88;48.78
61357;BME280;47227;46.752;23.576;2023-01-25T12:06:02;97431.89;;;3.82;49.20
61357;BME280;47227;46.752;23.576;2023-01-25T12:09:00;97431.23;;;3.71;48.75
61357;BME280;47227;46.752;23.576;2023-01-25T12:11:42;97426.71;;;3.71;49.91
61357;BME280;47227;46.752;23.576;2023-01-25T12:14:48;97425.13;;;3.69;49.57
61357;BME280;47227;46.752;23.576;2023-01-25T12:24:29;97424.48;;;3.36;49.31
61357;BME280;47227;46.752;23.576;2023-01-25T12:27:21;97427.63;;;3.19;49.55
61357;BME280;47227;46.752;23.576;2023-01-25T12:30:19;97422.58;;;3.11;49.96
61357;BME280;47227;46.752;23.576;2023-01-25T12:33:17;97415.68;;;3.05;50.21
61357;BME280;47227;46.752;23.576;2023-01-25T12:36:17;97418.89;;;3.01;50.20
61357;BME280;47227;46.752;23.576;2023-01-25T12:39:09;97415.61;;;2.93;50.31
61357;BME280;47227;46.752;23.576;2023-01-25T12:41:49;97413.73;;;2.91;50.86
61357;BME280;47227;46.752;23.576;2023-01-25T12:44:51;97411.77;;;2.92;50.81
61357;BME280;47227;46.752;23.576;2023-01-25T12:47:55;97414.29;;;2.94;51.08
61357;BME280;47227;46.752;23.576;2023-01-25T12:50:58;97409.59;;;2.95;51.21
61357;BME280;47227;46.752;23.576;2023-01-25T12:53:47;97406.27;;;2.90;50.62
61357;BME280;47227;46.752;23.576;2023-01-25T12:57:26;97399.56;;;2.73;50.38
61357;BME280;47227;46.752;23.576;2023-01-25T13:00:28;97397.98;;;2.67;51.21
61357;BME280;47227;46.752;23.576;2023-01-25T13:07:48;97395.54;;;2.56;51.67
61357;BME280;47227;46.752;23.576;2023-01-25T13:11:37;97389.27;;;2.50;51.55
61357;BME280;47227;46.752;23.576;2023-01-25T13:14:35;97393.70;;;2.46;51.74
61357;BME280;47227;46.752;23.576;2023-01-25T13:17:53;97391.10;;;2.44;51.74
61357;BME280;47227;46.752;23.576;2023-01-25T13:21:04;97388.89;;;2.33;51.89
61357;BME280;47227;46.752;23.576;2023-01-25T13:25:05;97384.29;;;2.25;52.31
61357;BME280;47227;46.752;23.576;2023-01-25T13:28:39;97380.92;;;2.14;52.45
61357;BME280;47227;46.752;23.576;2023-01-25T13:31:42;97372.48;;;2.03;52.86
61357;BME280;47227;46.752;23.576;2023-01-25T13:35:03;97374.14;;;1.97;53.46
61357;BME280;47227;46.752;23.576;2023-01-25T13:41:06;97372.44;;;1.78;54.22
61357;BME280;47227;46.752;23.576;2023-01-25T13:43:41;97370.28;;;1.69;54.80
61357;BME280;47227;46.752;23.576;2023-01-25T13:46:13;97372.61;;;1.63;54.73
61357;BME280;47227;46.752;23.576;2023-01-25T13:48:46;97372.65;;;1.56;54.59
61357;BME280;47227;46.752;23.576;2023-01-25T13:51:21;97370.55;;;1.40;54.72
61357;BME280;47227;46.752;23.576;2023-01-25T14:01:28;97370.23;;;1.05;55.60
61357;BME280;47227;46.752;23.576;2023-01-25T14:04:30;97376.05;;;0.99;55.85
61357;BME280;47227;46.752;23.576;2023-01-25T14:08:15;97372.16;;;0.92;56.06
61357;BME280;47227;46.752;23.576;2023-01-25T14:11:20;97373.09;;;0.86;56.85
61357;BME280;47227;46.752;23.576;2023-01-25T14:14:28;97373.96;;;0.86;56.36
61357;BME280;47227;46.752;23.576;2023-01-25T14:17:15;97376.19;;;0.81;56.42
61357;BME280;47227;46.752;23.576;2023-01-25T14:20:18;97378.85;;;0.77;56.37
61357;BME280;47227;46.752;23.576;2023-01-25T14:25:41;97376.20;;;0.69;55.65
61357;BME280;47227;46.752;23.576;2023-01-25T14:28:11;97375.48;;;0.59;55.56
61357;BME280;47227;46.752;23.576;2023-01-25T14:30:41;97379.77;;;0.56;55.72
61357;BME280;47227;46.752;23.576;2023-01-25T14:42:22;97368.66;;;0.37;56.29
61357;BME280;47227;46.752;23.576;2023-01-25T14:46:26;97364.36;;;0.33;56.30
61357;BME280;47227;46.752;23.576;2023-01-25T14:49:15;97356.27;;;0.32;56.50
61357;BME280;47227;46.752;23.576;2023-01-25T14:52:11;97354.75;;;0.33;56.51
61357;BME280;47227;46.752;23.576;2023-01-25T14:55:12;97357.52;;;0.31;55.88
61357;BME280;47227;46.752;23.576;2023-01-25T14:57:43;97359.13;;;0.27;55.67
61357;BME280;47227;46.752;23.576;2023-01-25T15:04:52;97353.02;;;0.20;56.13
61357;BME280;47227;46.752;23.576;2023-01-25T15:08:55;97345.65;;;0.11;55.32
61357;BME280;47227;46.752;23.576;2023-01-25T15:24:16;97349.53;;;-0.06;55.87
61357;BME280;47227;46.752;23.576;2023-01-25T15:26:55;97351.05;;;-0.09;55.84
61357;BME280;47227;46.752;23.576;2023-01-25T15:46:22;97353.75;;;-0.24;56.12
61357;BME280;47227;46.752;23.576;2023-01-25T15:48:59;97356.54;;;-0.24;56.13
61357;BME280;47227;46.752;23.576;2023-01-25T16:01:28;97360.20;;;-0.28;56.23
61357;BME280;47227;46.752;23.576;2023-01-25T16:05:38;97361.12;;;-0.27;56.55
61357;BME280;47227;46.752;23.576;2023-01-25T16:08:59;97353.14;;;-0.25;56.57
61357;BME280;47227;46.752;23.576;2023-01-25T16:20:59;97350.48;;;-0.24;56.48
61357;BME280;47227;46.752;23.576;2023-01-25T16:26:19;97349.81;;;-0.22;56.70
61357;BME280;47227;46.752;23.576;2023-01-25T16:32:31;97345.02;;;-0.23;56.75
61357;BME280;47227;46.752;23.576;2023-01-25T16:35:07;97342.35;;;-0.23;56.86
61357;BME280;47227;46.752;23.576;2023-01-25T16:37:55;97337.02;;;-0.24;56.95
61357;BME280;47227;46.752;23.576;2023-01-25T16:41:05;97333.10;;;-0.24;57.02
61357;BME280;47227;46.752;23.576;2023-01-25T16:43:54;97330.23;;;-0.24;57.06
61357;BME280;47227;46.752;23.576;2023-01-25T16:46:23;97326.58;;;-0.25;57.17
61357;BME280;47227;46.752;23.576;2023-01-25T17:30:08;97312.04;;;-0.38;57.57
61357;BME280;47227;46.752;23.576;2023-01-25T17:32:37;97308.46;;;-0.39;57.55
61357;BME280;47227;46.752;23.576;2023-01-25T17:35:06;97308.51;;;-0.37;57.71
61357;BME280;47227;46.752;23.576;2023-01-25T17:37:38;97306.41;;;-0.40;57.76
61357;BME280;47227;46.752;23.576;2023-01-25T17:40:14;97298.86;;;-0.39;57.91
61357;BME280;47227;46.752;23.576;2023-01-25T17:42:43;97293.73;;;-0.39;57.76
61357;BME280;47227;46.752;23.576;2023-01-25T17:45:23;97295.55;;;-0.38;57.69
61357;BME280;47227;46.752;23.576;2023-01-25T17:47:55;97288.58;;;-0.37;57.87
61357;BME280;47227;46.752;23.576;2023-01-25T17:50:23;97291.50;;;-0.35;57.95
61357;BME280;47227;46.752;23.576;2023-01-25T17:52:55;97292.48;;;-0.35;57.87
61357;BME280;47227;46.752;23.576;2023-01-25T17:55:24;97289.09;;;-0.35;57.86
61357;BME280;47227;46.752;23.576;2023-01-25T17:57:52;97286.03;;;-0.36;58.11
61357;BME280;47227;46.752;23.576;2023-01-25T18:00:27;97283.02;;;-0.38;57.96
61357;BME280;47227;46.752;23.576;2023-01-25T18:02:58;97284.25;;;-0.37;57.91
61357;BME280;47227;46.752;23.576;2023-01-25T19:42:12;97209.77;;;-0.81;57.73
61357;BME280;47227;46.752;23.576;2023-01-25T19:44:48;97211.23;;;-0.82;57.72
61357;BME280;47227;46.752;23.576;2023-01-25T19:47:22;97211.35;;;-0.83;57.86
61357;BME280;47227;46.752;23.576;2023-01-25T19:49:50;97209.64;;;-0.83;57.78
61357;BME280;47227;46.752;23.576;2023-01-25T19:52:19;97205.90;;;-0.83;57.88
61357;BME280;47227;46.752;23.576;2023-01-25T19:54:47;97201.42;;;-0.85;57.84
61357;BME280;47227;46.752;23.576;2023-01-25T19:57:15;97199.49;;;-0.86;57.94
61357;BME280;47227;46.752;23.576;2023-01-25T19:59:44;97191.38;;;-0.88;58.03
61357;BME280;47227;46.752;23.576;2023-01-25T20:02:12;97185.12;;;-0.90;58.18
61357;BME280;47227;46.752;23.576;2023-01-25T20:04:40;97186.25;;;-0.95;57.98
61357;BME280;47227;46.752;23.576;2023-01-25T20:07:14;97182.02;;;-1.01;58.16
61357;BME280;47227;46.752;23.576;2023-01-25T20:09:46;97182.67;;;-1.05;58.33
61357;BME280;47227;46.752;23.576;2023-01-25T20:12:21;97188.61;;;-1.09;58.28
61357;BME280;47227;46.752;23.576;2023-01-25T20:14:49;97184.48;;;-1.10;58.44
61357;BME280;47227;46.752;23.576;2023-01-25T20:17:18;97179.30;;;-1.11;58.39
61357;BME280;47227;46.752;23.576;2023-01-25T20:19:54;97175.14;;;-1.13;58.27
61357;BME280;47227;46.752;23.576;2023-01-25T20:22:23;97168.04;;;-1.15;58.11
61357;BME280;47227;46.752;23.576;2023-01-25T20:24:58;97166.96;;;-1.17;58.17
61357;BME280;47227;46.752;23.576;2023-01-25T20:27:30;97165.31;;;-1.17;58.41
61357;BME280;47227;46.752;23.576;2023-01-25T20:30:01;97162.52;;;-1.17;58.55
61357;BME280;47227;46.752;23.576;2023-01-25T20:32:29;97161.23;;;-1.16;58.54
61357;BME280;47227;46.752;23.576;2023-01-25T20:35:00;97158.09;;;-1.16;58.77
61357;BME280;47227;46.752;23.576;2023-01-25T20:37:30;97161.32;;;-1.15;58.69
61357;BME280;47227;46.752;23.576;2023-01-25T20:39:58;97157.69;;;-1.15;58.64
61357;BME280;47227;46.752;23.576;2023-01-25T20:42:30;97154.98;;;-1.15;58.69
61357;BME280;47227;46.752;23.576;2023-01-25T20:45:03;97155.27;;;-1.15;59.05
61357;BME280;47227;46.752;23.576;2023-01-25T20:47:33;97156.46;;;-1.13;59.04
61357;BME280;47227;46.752;23.576;2023-01-25T20:50:03;97153.49;;;-1.11;59.01
61357;BME280;47227;46.752;23.576;2023-01-25T20:52:35;97148.66;;;-1.09;58.97
61357;BME280;47227;46.752;23.576;2023-01-25T20:55:04;97143.95;;;-1.08;58.75
61357;BME280;47227;46.752;23.576;2023-01-25T20:57:34;97143.58;;;-1.07;59.02
61357;BME280;47227;46.752;23.576;2023-01-25T21:00:11;97139.90;;;-1.05;59.00
61357;BME280;47227;46.752;23.576;2023-01-25T21:02:42;97140.69;;;-1.03;59.00
61357;BME280;47227;46.752;23.576;2023-01-25T21:05:15;97135.59;;;-1.05;58.52
61357;BME280;47227;46.752;23.576;2023-01-25T21:07:46;97137.22;;;-1.08;58.45
61357;BME280;47227;46.752;23.576;2023-01-25T21:10:15;97135.90;;;-1.08;58.62
61357;BME280;47227;46.752;23.576;2023-01-25T21:13:04;97140.38;;;-1.08;58.42
61357;BME280;47227;46.752;23.576;2023-01-25T21:16:00;97141.31;;;-1.07;58.68
61357;BME280;47227;46.752;23.576;2023-01-25T21:18:44;97140.05;;;-1.05;58.87
61357;BME280;47227;46.752;23.576;2023-01-25T21:21:18;97138.58;;;-1.02;59.04
61357;BME280;47227;46.752;23.576;2023-01-25T21:23:48;97133.38;;;-0.98;59.08
61357;BME280;47227;46.752;23.576;2023-01-25T21:26:25;97132.56;;;-0.95;59.04
61357;BME280;47227;46.752;23.576;2023-01-25T21:28:54;97129.96;;;-0.95;58.96
61357;BME280;47227;46.752;23.576;2023-01-25T21:31:25;97127.09;;;-0.96;59.26
61357;BME280;47227;46.752;23.576;2023-01-25T21:33:56;97127.61;;;-0.95;59.20
61357;BME280;47227;46.752;23.576;2023-01-25T21:36:28;97124.16;;;-0.95;59.44
61357;BME280;47227;46.752;23.576;2023-01-25T21:39:17;97126.55;;;-0.93;59.72
61357;BME280;47227;46.752;23.576;2023-01-25T21:41:45;97128.07;;;-0.93;59.59
61357;BME280;47227;46.752;23.576;2023-01-25T21:44:15;97126.91;;;-0.92;59.64
61357;BME280;47227;46.752;23.576;2023-01-25T21:47:01;97123.34;;;-0.99;59.95
61357;BME280;47227;46.752;23.576;2023-01-25T21:49:49;97121.58;;;-1.02;59.76
61357;BME280;47227;46.752;23.576;2023-01-25T21:52:32;97119.43;;;-1.06;59.20
61357;BME280;47227;46.752;23.576;2023-01-25T21:55:04;97120.83;;;-1.05;59.46
61357;BME280;47227;46.752;23.576;2023-01-25T21:57:37;97118.52;;;-1.02;59.59
61357;BME280;47227;46.752;23.576;2023-01-25T22:00:13;97116.73;;;-1.02;59.62
61357;BME280;47227;46.752;23.576;2023-01-25T22:02:43;97118.07;;;-0.98;59.56
61357;BME280;47227;46.752;23.576;2023-01-25T22:05:12;97116.54;;;-0.95;59.81
61357;BME280;47227;46.752;23.576;2023-01-25T22:07:40;97118.40;;;-0.94;60.08
61357;BME280;47227;46.752;23.576;2023-01-25T22:10:09;97113.58;;;-0.94;60.04
61357;BME280;47227;46.752;23.576;2023-01-25T22:12:41;97108.50;;;-0.93;59.91
61357;BME280;47227;46.752;23.576;2023-01-25T22:15:13;97103.45;;;-0.93;59.84
61357;BME280;47227;46.752;23.576;2023-01-25T22:17:41;97097.10;;;-0.93;59.80
61357;BME280;47227;46.752;23.576;2023-01-25T22:20:11;97092.90;;;-0.95;59.71
61357;BME280;47227;46.752;23.576;2023-01-25T22:22:43;97090.60;;;-0.98;59.92
61357;BME280;47227;46.752;23.576;2023-01-25T22:25:14;97088.05;;;-1.02;60.06
61357;BME280;47227;46.752;23.576;2023-01-25T22:27:57;97086.14;;;-1.03;60.14
61357;BME280;47227;46.752;23.576;2023-01-25T22:30:28;97087.01;;;-1.05;60.24
61357;BME280;47227;46.752;23.576;2023-01-25T22:33:00;97086.77;;;-1.06;60.46
61357;BME280;47227;46.752;23.576;2023-01-25T22:35:31;97084.92;;;-1.06;60.29
61357;BME280;47227;46.752;23.576;2023-01-25T22:38:01;97081.83;;;-1.08;60.19
61357;BME280;47227;46.752;23.576;2023-01-25T22:40:29;97080.80;;;-1.08;60.33
61357;BME280;47227;46.752;23.576;2023-01-25T22:45:39;97086.05;;;-1.07;60.52
61357;BME280;47227;46.752;23.576;2023-01-25T22:48:07;97082.64;;;-1.09;60.23
61357;BME280;47227;46.752;23.576;2023-01-25T22:50:35;97080.96;;;-1.11;60.27
61357;BME280;47227;46.752;23.576;2023-01-25T22:53:04;97075.39;;;-1.11;60.39
61357;BME280;47227;46.752;23.576;2023-01-25T22:55:31;97072.83;;;-1.09;60.48
61357;BME280;47227;46.752;23.576;2023-01-25T22:57:59;97071.91;;;-1.12;60.30
61357;BME280;47227;46.752;23.576;2023-01-25T23:00:27;97062.48;;;-1.12;60.30
61357;BME280;47227;46.752;23.576;2023-01-25T23:02:58;97068.98;;;-1.10;60.56
61357;BME280;47227;46.752;23.576;2023-01-25T23:05:26;97061.43;;;-1.10;60.76
61357;BME280;47227;46.752;23.576;2023-01-25T23:07:54;97055.74;;;-1.12;60.54
61357;BME280;47227;46.752;23.576;2023-01-25T23:10:22;97054.60;;;-1.14;60.88
61357;BME280;47227;46.752;23.576;2023-01-25T23:12:52;97053.71;;;-1.17;60.85
61357;BME280;47227;46.752;23.576;2023-01-25T23:15:21;97049.88;;;-1.18;61.10
61357;BME280;47227;46.752;23.576;2023-01-25T23:17:49;97043.86;;;-1.18;61.23
61357;BME280;47227;46.752;23.576;2023-01-25T23:20:35;97040.94;;;-1.18;61.23
61357;BME280;47227;46.752;23.576;2023-01-25T23:23:03;97037.47;;;-1.21;61.00
61357;BME280;47227;46.752;23.576;2023-01-25T23:25:31;97037.77;;;-1.20;61.01
61357;BME280;47227;46.752;23.576;2023-01-25T23:27:59;97031.10;;;-1.22;61.56
61357;BME280;47227;46.752;23.576;2023-01-25T23:30:27;97033.03;;;-1.20;61.43
61357;BME280;47227;46.752;23.576;2023-01-25T23:32:55;97032.89;;;-1.18;62.18
61357;BME280;47227;46.752;23.576;2023-01-25T23:35:24;97040.49;;;-1.15;62.05
61357;BME280;47227;46.752;23.576;2023-01-25T23:37:52;97037.24;;;-1.14;61.93
61357;BME280;47227;46.752;23.576;2023-01-25T23:40:20;97033.25;;;-1.16;62.88
61357;BME280;47227;46.752;23.576;2023-01-25T23:42:48;97031.36;;;-1.15;62.55
61357;BME280;47227;46.752;23.576;2023-01-25T23:45:16;97027.30;;;-1.14;62.14
61357;BME280;47227;46.752;23.576;2023-01-25T23:47:44;97028.21;;;-1.13;62.49
61357;BME280;47227;46.752;23.576;2023-01-25T23:50:12;97024.64;;;-1.11;62.14
61357;BME280;47227;46.752;23.576;2023-01-25T23:52:40;97018.71;;;-1.10;62.01
61357;BME280;47227;46.752;23.576;2023-01-25T23:55:08;97015.25;;;-1.13;61.86
61357;BME280;47227;46.752;23.576;2023-01-25T23:57:37;97013.43;;;-1.14;61.86
